Isanti, Minnesota
Current Conditions -  °F | °C
As of 4:16 AM on Saturday 22 Nov 2014 (Local Time) from KCBG Reporting Station
Clear Clear  
Wind Chill: 29°   Ceiling: Unl
Heat Index: 36°   Visibility: 7mi
Dew Point: 27°   Wind: 8mph
Humidity: 70%   Direction: 190°S
Pressure: 29.75"   Gusts: NA
Location:  45.49°N, 93.25°W
Report Text: KCBG 221016Z AUTO 19007KT 7SM CLR 02/M03 A2975 RMK AO2
Loading
Personal Weather Stations






























Interactive Weather Map New forecast layout! Learn more

10-Day Weather Forecast

Advertisements
Track Severe Weather on mobile